• Join FlightAware (Why Join?)
  • Login
  • US Flag 
12:28AM EDT


 

Airport Tracker/Info


-or-


 

Live Flight TrackerFlight Track Log ✈ N6GD ✈ 03-Jun-2014 ✈ KLAX - KTPA

Flight Track Log - Related Links

Times and Time Zones

All times are in EDT time to prevent confusion due to time zone crossing. See the N6GD flight status page for this flight to view local times or setup timezone preferences in your user account.

Time Position Orientation Groundspeed Altitude Reporting Facility
EDT Latitude Longitude Course Direction KTS MPH feet Rate Location/Type
05:45PM 33.9297 -118.4553 223° Southwest 209 241 1,500  Level Los Angeles Center
05:46PM 33.8769 -118.5153 223° Southwest 255 293 3,400 1,800 Climbing Los Angeles Center
05:47PM 33.8147 -118.5339 194° South 256 295 5,300 1,980 Climbing Los Angeles Center
05:48PM 33.7425 -118.5211 172° South 264 304 7,600 2,460 Climbing Los Angeles Center
05:49PM 33.6750 -118.4461 137° Southeast 283 326 10,500 2,460 Climbing Los Angeles Center
05:50PM 33.6364 -118.3592 118° Southeast 307 353 12,700 1,860 Climbing Los Angeles Center
05:51PM 33.6236 -118.2564 98° East 320 368 14,400 1,440 Climbing Los Angeles Center
05:52PM 33.6253 -118.1383 89° East 356 410 15,700 1,500 Climbing Los Angeles Center
05:53PM 33.6269 -117.9881 89° East 376 433 17,500 1,680 Climbing Los Angeles Center
05:54PM 33.6275 -117.8586 90° East 387 445 19,200 1,380 Climbing Los Angeles Center
05:55PM 33.6283 -117.7247 90° East 397 457 20,400 1,200 Climbing Los Angeles Center
05:56PM 33.6292 -117.5864 90° East 410 472 21,800 1,200 Climbing Los Angeles Center
05:57PM 33.6300 -117.4431 90° East 424 488 23,000 1,260 Climbing Los Angeles Center
05:58PM 33.6314 -117.2981 89° East 431 496 24,500 1,560 Climbing Los Angeles Center
05:59PM 33.6319 -117.1233 90° East 434 499 26,300 1,680 Climbing Los Angeles Center
06:00PM 33.6317 -116.9803 90° East 434 499 28,000 1,200 Climbing Los Angeles Center
06:01PM 33.6275 -116.8417 92° East 434 499 28,800 720 Climbing Los Angeles Center
06:02PM 33.6106 -116.6944 98° East 442 509 29,600 720 Climbing Los Angeles Center
06:03PM 33.5922 -116.5419 98° East 454 522 30,400 840 Climbing Los Angeles Center
06:04PM 33.5683 -116.3514 99° East 473 544 31,400 900 Climbing Los Angeles Center
06:05PM 33.5506 -116.1908 98° East 485 558 32,300 840 Climbing Los Angeles Center
06:06PM 33.5303 -116.0294 99° East 490 564 33,200 960 Climbing Los Angeles Center
06:07PM 33.5114 -115.8681 98° East 490 564 34,300 960 Climbing Los Angeles Center
06:08PM 33.4911 -115.7089 99° East 488 562 35,300 900 Climbing Los Angeles Center
06:09PM 33.4714 -115.5522 99° East 480 552 36,200 720 Climbing Los Angeles Center
06:11PM 33.4522 -115.3950 98° East 479 551 36,900 660 Climbing Los Angeles Center
06:12PM 33.4314 -115.2378 99° East 478 550 37,600 540 Climbing Los Angeles Center
06:13PM 33.4078 -115.0500 99° East 478 550 38,100 480 Climbing Los Angeles Center
06:14PM 33.3886 -114.8914 98° East 480 552 38,600 420 Climbing Los Angeles Center
06:15PM 33.3667 -114.7328 99° East 481 554 39,000 180 Climbing Los Angeles Center
06:16PM 33.3461 -114.5725 99° East 485 558 39,000  Level Los Angeles Center
06:17PM 33.3244 -114.4125 99° East 488 562 39,000  Level Los Angeles Center
06:18PM 33.3053 -114.2533 98° East 492 566 39,000  Level Albuquerque Center
06:19PM 33.2831 -114.0908 99° East 493 567 39,000  Level Albuquerque Center
06:20PM 33.2614 -113.9286 99° East 493 567 39,000 -60 Level Albuquerque Center
06:21PM 33.2308 -113.7297 100° East 494 568 38,900  Descending Los Angeles Center
06:22PM 33.2111 -113.5708 98° East 494 568 39,000  Climbing Albuquerque Center
06:23PM 33.1883 -113.4097 100° East 494 568 39,000  Level Albuquerque Center
06:24PM 33.1642 -113.2472 100° East 494 568 39,000  Level Albuquerque Center
06:25PM 33.1403 -113.0853 100° East 494 568 39,000  Level Albuquerque Center
06:26PM 33.1178 -112.9228 99° East 494 568 39,000  Level Albuquerque Center
06:27PM 33.0936 -112.7608 100° East 494 568 39,000  Level Albuquerque Center
06:28PM 33.0639 -112.5644 100° East 495 570 39,000  Level Albuquerque Center
06:29PM 33.0392 -112.4022 100° East 495 570 39,000  Level Albuquerque Center
06:30PM 33.0133 -112.2406 101° East 497 572 39,000  Level Albuquerque Center
06:31PM 32.9897 -112.0783 100° East 498 573 39,000  Level Albuquerque Center
06:32PM 32.9656 -111.9181 100° East 498 573 39,000  Level Albuquerque Center
06:33PM 32.9403 -111.7583 101° East 497 572 39,000  Level Albuquerque Center
06:34PM 32.9103 -111.5664 100° East 497 572 39,000  Level Albuquerque Center
06:35PM 32.8856 -111.4072 100° East 496 571 39,000  Level Albuquerque Center
06:36PM 32.8603 -111.2472 101° East 494 568 39,000  Level Albuquerque Center
06:37PM 32.8333 -111.0867 101° East 494 568 39,000  Level Albuquerque Center
06:38PM 32.8086 -110.9272 100° East 494 568 39,000  Level Albuquerque Center
06:39PM 32.7806 -110.7681 102° East 494 568 39,000  Level Albuquerque Center
06:40PM 32.7522 -110.5944 101° East 494 568 39,000  Level Albuquerque Center
06:41PM 32.7272 -110.4347 100° East 494 568 39,000  Level Albuquerque Center
06:42PM 32.6931 -110.2436 102° East 495 570 39,000  Level Albuquerque Center
06:43PM 32.6658 -110.0850 101° East 495 570 39,000  Level Albuquerque Center
06:44PM 32.6394 -109.9275 101° East 493 567 39,000  Level Albuquerque Center
06:46PM 32.6122 -109.7683 100° East 493 567 39,000  Level Albuquerque Center
06:47PM 32.5822 -109.6097 103° East 494 568 39,000  Level Albuquerque Center
06:48PM 32.5556 -109.4525 101° East 494 568 39,000  Level Albuquerque Center
06:49PM 32.5225 -109.2658 102° East 492 566 39,000  Level Albuquerque Center
06:50PM 32.4931 -109.1117 103° East 490 564 39,000  Level Albuquerque Center
06:51PM 32.4661 -108.9569 102° East 488 562 39,000  Level Albuquerque Center
06:52PM 32.4383 -108.8042 102° East 484 557 39,000  Level Albuquerque Center
06:53PM 32.4111 -108.6506 102° East 484 557 39,000  Level Albuquerque Center
06:54PM 32.3825 -108.4958 102° East 484 557 39,000  Level Albuquerque Center
06:55PM 32.3447 -108.3075 103° East 486 559 39,000 -60 Level Albuquerque Center
06:56PM 32.3153 -108.1500 102° East 489 563 38,900  Descending Albuquerque Center
06:57PM 32.2867 -107.9942 102° East 489 563 39,000  Climbing Albuquerque Center
06:58PM 32.2578 -107.8378 102° East 489 563 39,000  Level Albuquerque Center
06:59PM 32.2278 -107.6806 103° East 489 563 39,000  Level Albuquerque Center
07:00PM 32.1992 -107.5253 102° East 489 563 39,000  Level Albuquerque Center
07:01PM 32.1633 -107.3394 103° East 489 563 39,000  Level Albuquerque Center
07:02PM 32.1339 -107.1842 103° East 490 564 39,000  Level Albuquerque Center
07:03PM 32.1036 -107.0308 103° East 490 564 39,000  Level Albuquerque Center
07:04PM 32.0742 -106.8772 103° East 489 563 39,000  Level Albuquerque Center
07:05PM 32.0447 -106.7258 103° East 482 555 39,000  Level Albuquerque Center
07:06PM 32.0075 -106.5436 103° East 479 551 39,000  Level Albuquerque Center
07:07PM 31.9772 -106.3875 103° East 480 552 39,000  Level Albuquerque Center
07:08PM 31.9522 -106.2367 101° East 482 555 39,000  Level Albuquerque Center
07:09PM 31.9486 -106.0811 92° East 481 554 39,000  Level Albuquerque Center
07:10PM 31.9453 -105.9050 91° East 480 552 39,000  Level Albuquerque Center
07:11PM 31.9414 -105.7483 92° East 480 552 39,000  Level Albuquerque Center
07:12PM 31.9381 -105.5794 91° East 480 552 39,000  Level Albuquerque Center
07:13PM 31.9342 -105.4217 92° East 481 554 39,000  Level Albuquerque Center
07:14PM 31.9339 -105.2678 90° East 477 549 39,000  Level Albuquerque Center
07:15PM 31.9258 -105.1117 93° East 477 549 39,000 -60 Level Albuquerque Center
07:16PM 31.9297 -104.9506 88° East 483 556 38,900  Descending Albuquerque Center
07:17PM 31.9269 -104.7931 91° East 484 557 39,000  Climbing Albuquerque Center
07:18PM 31.9217 -104.6139 92° East 483 556 39,000  Level Albuquerque Center
07:19PM 31.9161 -104.4572 92° East 483 556 39,000  Level Albuquerque Center
07:21PM 31.9119 -104.3000 92° East 483 556 39,000  Level Albuquerque Center
07:22PM 31.9061 -104.1442 92° East 482 555 39,000  Level Albuquerque Center
07:23PM 31.9019 -103.9878 92° East 482 555 39,000  Level Albuquerque Center
07:24PM 31.8975 -103.8328 92° East 480 552 39,000  Level Albuquerque Center
07:25PM 31.8919 -103.6775 92° East 479 551 39,000  Level Albuquerque Center
07:26PM 31.8856 -103.4914 92° East 479 551 39,000  Level Albuquerque Center
07:27PM 31.8789 -103.3367 93° East 478 550 39,000  Level Albuquerque Center
07:28PM 31.8667 -103.1831 95° East 478 550 39,000  Level Albuquerque Center
07:29PM 31.8369 -103.0206 102° East 474 545 39,000  Level Albuquerque Center
07:30PM 31.8114 -102.8681 101° East 474 545 39,000  Level Albuquerque Center
07:31PM 31.7842 -102.7156 102° East 474 545 39,000  Level Albuquerque Center
07:31PM 31.7736 -102.6531 101° East 476 548 39,000  Level Fort Worth Center
07:32PM 31.7422 -102.4694 101° East 479 551 39,000  Level Fort Worth Center
07:33PM 31.7156 -102.3153 101° East 478 550 39,000  Level Fort Worth Center
07:34PM 31.6892 -102.1622 101° East 477 549 39,000  Level Fort Worth Center
07:35PM 31.6636 -102.0083 101° East 476 548 39,000  Level Fort Worth Center
07:36PM 31.6347 -101.8569 103° East 475 547 39,000 -60 Level Fort Worth Center
07:37PM 31.6075 -101.7056 102° East 473 544 38,900  Descending Fort Worth Center
07:39PM 31.5803 -101.5547 102° East 473 544 39,000  Climbing Fort Worth Center
07:40PM 31.5525 -101.4053 102° East 472 543 39,000  Level Fort Worth Center
07:41PM 31.5194 -101.2247 102° East 472 543 39,000  Level Fort Worth Center
07:42PM 31.4928 -101.0772 102° East 470 541 39,000  Level Fort Worth Center
07:43PM 31.4647 -100.9283 102° East 469 540 39,000  Level Fort Worth Center
07:44PM 31.4367 -100.7806 103° East 469 540 39,000  Level Fort Worth Center
07:45PM 31.4042 -100.6125 103° East 468 539 39,000  Level Fort Worth Center
07:46PM 31.3792 -100.4644 101° East 467 537 39,000  Level Fort Worth Center
07:47PM 31.3533 -100.3161 101° East 467 537 39,000  Level Fort Worth Center
07:48PM 31.3261 -100.1689 102° East 466 536 39,000  Level Fort Worth Center
07:49PM 31.3000 -100.0194 102° East 467 537 39,000  Level Fort Worth Center
07:50PM 31.2736 -99.8711 102° East 466 536 39,000  Level Fort Worth Center
07:51PM 31.2486 -99.7228 101° East 466 536 39,000  Level Fort Worth Center
07:52PM 31.2167 -99.5442 102° East 467 537 39,000  Level Fort Worth Center
07:53PM 31.1900 -99.3967 102° East 468 539 39,000  Level Fort Worth Center
07:54PM 31.1633 -99.2494 102° East 464 534 39,000  Level Fort Worth Center
07:55PM 31.1375 -99.1017 102° East 464 534 39,000  Level Fort Worth Center
07:56PM 31.1147 -98.9694 101° East 464 534 39,000  Level Houston Center
07:57PM 31.0872 -98.8231 102° East 463 533 39,000  Level Houston Center
07:58PM 31.0611 -98.6769 102° East 463 533 39,000  Level Houston Center
07:59PM 31.0314 -98.5014 101° East 463 533 39,000  Level Houston Center
08:00PM 31.0053 -98.3550 102° East 463 533 39,000  Level Houston Center
08:01PM 30.9794 -98.2100 102° East 462 532 39,000  Level Houston Center
08:02PM 30.9481 -98.0361 102° East 460 529 39,000  Level Fort Worth Center
08:03PM 30.9228 -97.8922 102° East 459 528 39,000  Level Fort Worth Center
08:04PM 30.8978 -97.7486 101° East 459 528 39,000  Level Fort Worth Center
08:06PM 30.8339 -97.4633 105° East 457 526 39,000  Level Houston Center
08:07PM 30.8022 -97.3219 105° East 459 528 39,000  Level Houston Center
08:08PM 30.7722 -97.1803 104° East 461 531 39,000  Level Houston Center
08:09PM 30.7431 -97.0394 104° East 460 529 39,000  Level Houston Center
08:10PM 30.7117 -96.8961 104° East 460 529 39,000  Level Houston Center
08:11PM 30.6747 -96.7256 104° East 458 527 39,000  Level Houston Center
08:12PM 30.6425 -96.5844 105° East 458 527 39,000  Level Houston Center
08:13PM 30.6100 -96.4428 105° East 457 526 39,000  Level Houston Center
08:14PM 30.5806 -96.3003 103° East 457 526 39,000  Level Houston Center
08:16PM 30.5522 -96.1572 103° East 456 525 39,000  Level Houston Center
08:17PM 30.5192 -95.9969 103° East 457 526 39,000  Level Houston Center
08:18PM 30.4911 -95.8500 102° East 461 531 39,000  Level Houston Center
08:19PM 30.4611 -95.7042 103° East 463 533 39,000  Level Houston Center
08:20PM 30.4308 -95.5589 104° East 464 534 39,000  Level Houston Center
08:21PM 30.4003 -95.4122 104° East 466 536 39,000  Level Houston Center
08:22PM 30.3697 -95.2658 104° East 466 536 39,000  Level Houston Center
08:23PM 30.3386 -95.1200 104° East 466 536 39,000  Level Houston Center
08:24PM 30.3019 -94.9431 103° East 467 537 39,000  Level Houston Center
08:25PM 30.2697 -94.7947 104° East 470 541 39,000  Level Houston Center
08:26PM 30.2381 -94.6472 104° East 470 541 39,000  Level Houston Center
08:27PM 30.2064 -94.5003 104° East 470 541 39,000  Level Houston Center
08:28PM 30.1717 -94.3406 104° East 470 541 39,000  Level Houston Center
08:29PM 30.1406 -94.1939 104° East 470 541 39,000  Level Houston Center
08:30PM 30.1081 -94.0486 104° East 470 541 39,000  Level Houston Center
08:31PM 30.0758 -93.9044 104° East 469 540 39,000  Level Houston Center
08:32PM 30.0439 -93.7594 104° East 470 541 39,000  Level Houston Center
08:33PM 30.0111 -93.6142 105° East 471 542 39,000  Level Houston Center
08:34PM 29.9719 -93.4400 105° East 472 543 39,000  Level Houston Center
08:35PM 29.9394 -93.2942 104° East 472 543 39,000  Level Houston Center
08:36PM 29.9069 -93.1492 104° East 472 543 39,000  Level Houston Center
08:37PM 29.8742 -93.0053 105° East 472 543 39,000  Level Houston Center
08:38PM 29.8422 -92.8661 105° East 459 528 39,000  Level Houston Center
08:39PM 29.8042 -92.6983 105° East 454 522 39,000  Level Houston Center
08:40PM 29.7711 -92.5578 105° East 454 522 39,000  Level Houston Center
08:41PM 29.7369 -92.4156 105° East 459 528 39,000  Level Houston Center
08:42PM 29.7039 -92.2719 105° East 462 532 39,000  Level Houston Center
08:43PM 29.6697 -92.1272 105° East 466 536 39,000  Level Houston Center
08:44PM 29.6367 -91.9831 105° East 466 536 39,000  Level Houston Center
08:45PM 29.6022 -91.8386 105° East 467 537 39,000  Level Houston Center
08:46PM 29.5633 -91.6744 105° East 468 539 39,000 -60 Level Houston Center
08:47PM 29.5283 -91.5297 105° East 469 540 38,900  Descending Houston Center
08:48PM 29.4922 -91.3856 106° East 471 542 39,000  Climbing Houston Center
08:49PM 29.4564 -91.2419 106° East 471 542 39,000  Level Houston Center
08:50PM 29.4158 -91.0700 105° East 471 542 39,000  Level Houston Center
08:52PM 29.3797 -90.9264 106° East 470 541 39,000  Level Houston Center
08:53PM 29.3447 -90.7822 106° East 471 542 39,000  Level Houston Center
08:54PM 29.3092 -90.6400 106° East 470 541 39,000  Level Houston Center
08:55PM 29.2742 -90.4969 106° East 468 539 39,000  Level Houston Center
08:56PM 29.2381 -90.3536 106° East 469 540 39,000  Level Houston Center
08:57PM 29.1950 -90.1819 106° East 469 540 39,000  Level Houston Center
08:58PM 29.1603 -90.0372 105° East 472 543 39,000  Level Houston Center
08:59PM 29.1236 -89.8917 106° East 475 547 39,000  Level Houston Center
09:00PM 29.0867 -89.7447 106° East 480 552 39,000  Level Houston Center
09:01PM 29.0506 -89.5978 106° East 482 555 39,000  Level Houston Center
09:02PM 29.0125 -89.4486 106° East 487 560 39,000  Level Houston Center
09:03PM 28.9750 -89.3000 106° East 487 560 39,000  Level Houston Center
09:04PM 28.9303 -89.1219 106° East 487 560 39,000  Level Houston Center
09:05PM 28.8928 -88.9722 106° East 488 562 39,000  Level Houston Center
09:06PM 28.8544 -88.8219 106° East 492 566 39,000  Level Houston Center
09:07PM 28.8158 -88.6736 107° East 492 566 39,000  Level Houston Center
09:08PM 28.7775 -88.5219 106° East 494 568 39,000  Level Houston Center
09:09PM 28.7383 -88.3744 107° East 493 567 39,000  Level Houston Center
09:10PM 28.6994 -88.2231 106° East 493 567 39,000  Level Houston Center
09:11PM 28.6517 -88.0414 107° East 495 570 39,000  Level Houston Center
09:12PM 28.6117 -87.8908 107° East 497 572 39,000  Level Houston Center
09:13PM 28.5719 -87.7381 106° East 501 577 39,000  Level Houston Center
09:14PM 28.5308 -87.5856 107° East 502 578 39,000  Level Houston Center
09:15PM 28.4903 -87.4331 107° East 504 580 39,000  Level Houston Center
09:16PM 28.4492 -87.2803 107° East 507 583 39,000 -240 Level Houston Center
09:17PM 28.4083 -87.1292 107° East 506 582 38,600 -720 Descending Houston Center
09:18PM 28.3678 -86.9800 107° East 500 575 37,600 -840 Descending Houston Center
09:19PM 28.3203 -86.8050 107° East 491 565 37,000 -300 Descending Houston Center
09:20PM 28.2808 -86.6647 108° East 476 548 37,000 -300 Level Houston Center
09:22PM 28.2256 -86.4636 107° East 477 549 36,400 -780 Descending Jacksonville Center
09:23PM 28.1878 -86.3211 107° East 484 557 35,300 -1,140 Descending Jacksonville Center
09:24PM 28.1436 -86.1714 108° East 483 556 34,200 -1,080 Descending Jacksonville Center
09:25PM 28.1033 -86.0311 108° East 483 556 33,200 -1,080 Descending Jacksonville Center
09:26PM 28.0650 -85.8911 107° East 478 550 32,100 -1,140 Descending Jacksonville Center
09:27PM 28.0242 -85.7536 109° East 478 550 31,000 -600 Descending Jacksonville Center
09:28PM 27.9856 -85.6139 107° East 467 537 31,000  Level Jacksonville Center
09:29PM 27.9239 -85.3878 107° East 471 542 31,000  Level Miami Center
09:30PM 27.8850 -85.2425 107° East 478 550 31,000  Level Miami Center
09:31PM 27.8694 -85.0894 97° East 489 563 31,000  Level Miami Center
09:32PM 27.8558 -84.9461 96° East 489 563 31,000  Level Miami Center
09:33PM 27.8392 -84.7603 96° East 494 568 31,000 -540 Level Miami Center
09:34PM 27.8408 -84.6064 89° East 494 568 30,000 -1,620 Descending Miami Center
09:35PM 27.8492 -84.4567 86° East 482 555 27,800 -2,280 Descending Miami Center
09:36PM 27.8594 -84.3114 85° East 466 536 25,400 -2,160 Descending Miami Center
09:37PM 27.8658 -84.1644 87° East 471 542 23,500 -1,920 Descending Miami Center
09:38PM 27.8733 -84.0242 87° East 451 519 21,500 -1,920 Descending Miami Center
09:39PM 27.8800 -83.8894 87° East 432 497 19,600 -1,860 Descending Miami Center
09:40PM 27.8872 -83.7633 86° East 406 467 17,800 -1,800 Descending Miami Center
09:41PM 27.8936 -83.6397 87° East 399 459 16,000 -2,040 Descending Miami Center
09:42PM 27.9000 -83.5200 87° East 386 444 13,700 -2,220 Descending Miami Center
09:43PM 27.9047 -83.4078 87° East 362 417 11,500 -1,860 Descending Miami Center
09:44PM 27.9092 -83.2978 87° East 355 409 10,000 -840 Descending Miami Center
09:45PM 27.9142 -83.1931 87° East 339 390 9,900 -60 Descending Miami Center
09:46PM 27.9514 -83.0783 70° East 326 375 9,900  Level Miami Center
09:48PM 27.9936 -82.9861 63° Northeast 326 375 9,900 -60 Level Miami Center
09:49PM 28.0231 -82.8936 70° East 317 365 9,800 -540 Descending Miami Center
09:49PM 28.0333 -82.8333 79° East 258 297 9,000 -1,320 Descending Tampa TRACON
09:50PM 28.0000 -82.7667 120° Southeast 256 295 7,500 -1,200 Descending Tampa TRACON
09:51PM 27.9500 -82.7000 130° Southeast 252 290 6,800 -1,260 Descending Tampa TRACON
09:52PM 27.9167 -82.6500 127° Southeast 233 268 5,100 -1,740 Descending Tampa TRACON
09:53PM 27.8667 -82.6000 139° Southeast 234 269 3,400 -1,140 Descending Tampa TRACON
09:54PM 27.8667 -82.5500 90° East 136 157 2,800 -1,080 Descending Tampa TRACON
09:55PM 27.9167 -82.5500 360° North 128 147 1,200 -1,320 Descending Tampa TRACON
09:56PM 27.9500 -82.5500 360° North 135 155 300 -1,020 Descending Tampa TRACON
09:59PM 27.9667 -82.5167 19° North  Level FlightAware Approximate
10:06PM 27.9755 -82.5332 19° North  Level Estimated